sensor_id;sensor_type;location;lat;lon;timestamp;temperature;humidity
360;DHT22;168;48.872;9.226;2023-10-13T00:00:26;19.40;89.80
360;DHT22;168;48.872;9.226;2023-10-13T00:02:58;19.40;89.90
360;DHT22;168;48.872;9.226;2023-10-13T00:05:27;19.30;89.90
360;DHT22;168;48.872;9.226;2023-10-13T00:07:56;19.30;90.00
360;DHT22;168;48.872;9.226;2023-10-13T00:10:27;19.30;89.30
360;DHT22;168;48.872;9.226;2023-10-13T00:12:55;19.30;89.10
360;DHT22;168;48.872;9.226;2023-10-13T00:15:31;19.30;89.00
360;DHT22;168;48.872;9.226;2023-10-13T00:18:06;19.20;89.20
360;DHT22;168;48.872;9.226;2023-10-13T00:20:40;19.20;89.00
360;DHT22;168;48.872;9.226;2023-10-13T00:23:13;19.10;89.00
360;DHT22;168;48.872;9.226;2023-10-13T00:25:41;19.10;88.70
360;DHT22;168;48.872;9.226;2023-10-13T00:28:16;19.00;89.00
360;DHT22;168;48.872;9.226;2023-10-13T00:30:50;19.00;88.90
360;DHT22;168;48.872;9.226;2023-10-13T00:33:20;19.00;88.90
360;DHT22;168;48.872;9.226;2023-10-13T00:35:50;18.90;88.90
360;DHT22;168;48.872;9.226;2023-10-13T00:38:18;18.90;89.20
360;DHT22;168;48.872;9.226;2023-10-13T00:40:49;18.80;89.60
360;DHT22;168;48.872;9.226;2023-10-13T00:43:21;18.70;90.00
360;DHT22;168;48.872;9.226;2023-10-13T00:46:05;18.70;90.20
360;DHT22;168;48.872;9.226;2023-10-13T00:48:37;18.60;90.40
360;DHT22;168;48.872;9.226;2023-10-13T00:51:21;18.50;90.60
360;DHT22;168;48.872;9.226;2023-10-13T00:54:00;18.40;91.10
360;DHT22;168;48.872;9.226;2023-10-13T00:56:28;18.40;91.50
360;DHT22;168;48.872;9.226;2023-10-13T00:58:57;18.30;91.90
360;DHT22;168;48.872;9.226;2023-10-13T01:01:28;18.30;92.10
360;DHT22;168;48.872;9.226;2023-10-13T01:03:57;18.20;92.20
360;DHT22;168;48.872;9.226;2023-10-13T01:06:27;18.20;92.10
360;DHT22;168;48.872;9.226;2023-10-13T01:08:58;18.20;92.40
360;DHT22;168;48.872;9.226;2023-10-13T01:11:37;18.10;92.70
360;DHT22;168;48.872;9.226;2023-10-13T01:14:04;18.10;92.60
360;DHT22;168;48.872;9.226;2023-10-13T01:16:32;18.10;92.20
360;DHT22;168;48.872;9.226;2023-10-13T01:19:00;18.10;92.00
360;DHT22;168;48.872;9.226;2023-10-13T01:21:31;18.00;91.30
360;DHT22;168;48.872;9.226;2023-10-13T01:24:01;18.10;90.60
360;DHT22;168;48.872;9.226;2023-10-13T01:26:34;18.10;90.10
360;DHT22;168;48.872;9.226;2023-10-13T01:29:05;18.00;90.20
360;DHT22;168;48.872;9.226;2023-10-13T01:31:39;17.90;90.30
360;DHT22;168;48.872;9.226;2023-10-13T01:34:12;18.00;88.80
360;DHT22;168;48.872;9.226;2023-10-13T01:36:41;18.10;87.50
360;DHT22;168;48.872;9.226;2023-10-13T01:39:10;18.00;86.90
360;DHT22;168;48.872;9.226;2023-10-13T01:41:42;18.00;86.20
360;DHT22;168;48.872;9.226;2023-10-13T01:44:10;18.00;86.30
360;DHT22;168;48.872;9.226;2023-10-13T01:46:37;18.10;85.40
360;DHT22;168;48.872;9.226;2023-10-13T01:49:05;18.00;84.90
360;DHT22;168;48.872;9.226;2023-10-13T01:51:33;17.90;85.00
360;DHT22;168;48.872;9.226;2023-10-13T01:54:01;17.90;84.70
360;DHT22;168;48.872;9.226;2023-10-13T01:56:31;17.90;85.00
360;DHT22;168;48.872;9.226;2023-10-13T01:59:08;18.00;85.10
360;DHT22;168;48.872;9.226;2023-10-13T02:01:35;18.00;84.20
360;DHT22;168;48.872;9.226;2023-10-13T02:04:03;18.00;85.00
360;DHT22;168;48.872;9.226;2023-10-13T02:06:31;17.90;84.80
360;DHT22;168;48.872;9.226;2023-10-13T02:09:03;17.80;85.90
360;DHT22;168;48.872;9.226;2023-10-13T02:11:38;17.80;86.00
360;DHT22;168;48.872;9.226;2023-10-13T02:14:06;17.80;86.00
360;DHT22;168;48.872;9.226;2023-10-13T02:16:32;17.80;85.90
360;DHT22;168;48.872;9.226;2023-10-13T02:18:59;17.80;84.90
360;DHT22;168;48.872;9.226;2023-10-13T02:21:31;17.80;85.00
360;DHT22;168;48.872;9.226;2023-10-13T02:24:05;17.90;84.90
360;DHT22;168;48.872;9.226;2023-10-13T02:26:40;17.80;84.80
360;DHT22;168;48.872;9.226;2023-10-13T02:29:08;17.80;84.30
360;DHT22;168;48.872;9.226;2023-10-13T02:31:35;17.90;84.00
360;DHT22;168;48.872;9.226;2023-10-13T02:34:02;17.90;83.70
360;DHT22;168;48.872;9.226;2023-10-13T02:36:34;17.80;83.50
360;DHT22;168;48.872;9.226;2023-10-13T02:39:13;17.70;83.40
360;DHT22;168;48.872;9.226;2023-10-13T02:41:41;17.70;83.60
360;DHT22;168;48.872;9.226;2023-10-13T02:44:14;17.70;83.70
360;DHT22;168;48.872;9.226;2023-10-13T02:46:52;17.70;83.10
360;DHT22;168;48.872;9.226;2023-10-13T02:49:21;17.70;83.30
360;DHT22;168;48.872;9.226;2023-10-13T02:51:48;17.70;83.40
360;DHT22;168;48.872;9.226;2023-10-13T02:54:18;17.70;83.40
360;DHT22;168;48.872;9.226;2023-10-13T02:56:46;17.60;83.80
360;DHT22;168;48.872;9.226;2023-10-13T02:59:22;17.60;84.10
360;DHT22;168;48.872;9.226;2023-10-13T03:02:00;17.70;83.60
360;DHT22;168;48.872;9.226;2023-10-13T03:04:32;17.60;83.80
360;DHT22;168;48.872;9.226;2023-10-13T03:06:59;17.80;83.10
360;DHT22;168;48.872;9.226;2023-10-13T03:09:29;17.70;82.90
360;DHT22;168;48.872;9.226;2023-10-13T03:11:57;17.70;82.80
360;DHT22;168;48.872;9.226;2023-10-13T03:14:24;17.70;82.90
360;DHT22;168;48.872;9.226;2023-10-13T03:16:52;17.60;83.00
360;DHT22;168;48.872;9.226;2023-10-13T03:19:22;17.60;83.20
360;DHT22;168;48.872;9.226;2023-10-13T03:21:58;17.60;83.40
360;DHT22;168;48.872;9.226;2023-10-13T03:24:33;17.50;83.20
360;DHT22;168;48.872;9.226;2023-10-13T03:27:01;17.50;83.70
360;DHT22;168;48.872;9.226;2023-10-13T03:29:36;17.50;83.50
360;DHT22;168;48.872;9.226;2023-10-13T03:32:04;17.40;84.00
360;DHT22;168;48.872;9.226;2023-10-13T03:34:38;17.40;83.90
360;DHT22;168;48.872;9.226;2023-10-13T03:37:16;17.40;83.70
360;DHT22;168;48.872;9.226;2023-10-13T03:39:48;17.30;83.40
360;DHT22;168;48.872;9.226;2023-10-13T03:42:18;17.30;83.40
360;DHT22;168;48.872;9.226;2023-10-13T03:44:48;17.40;83.30
360;DHT22;168;48.872;9.226;2023-10-13T03:47:15;17.30;83.50
360;DHT22;168;48.872;9.226;2023-10-13T03:49:53;17.30;83.90
360;DHT22;168;48.872;9.226;2023-10-13T03:52:40;17.30;84.00
360;DHT22;168;48.872;9.226;2023-10-13T03:55:08;17.30;83.60
360;DHT22;168;48.872;9.226;2023-10-13T03:57:45;17.30;83.40
360;DHT22;168;48.872;9.226;2023-10-13T04:00:16;17.20;83.70
360;DHT22;168;48.872;9.226;2023-10-13T04:02:50;17.20;83.60
360;DHT22;168;48.872;9.226;2023-10-13T04:05:33;17.20;83.10
360;DHT22;168;48.872;9.226;2023-10-13T04:08:11;17.10;83.40
360;DHT22;168;48.872;9.226;2023-10-13T04:10:57;17.10;83.70
360;DHT22;168;48.872;9.226;2023-10-13T04:13:42;17.10;84.40
360;DHT22;168;48.872;9.226;2023-10-13T04:16:27;17.10;83.60
360;DHT22;168;48.872;9.226;2023-10-13T04:19:16;17.10;83.50
360;DHT22;168;48.872;9.226;2023-10-13T04:21:50;17.00;84.00
360;DHT22;168;48.872;9.226;2023-10-13T04:24:48;17.00;84.10
360;DHT22;168;48.872;9.226;2023-10-13T04:27:35;17.00;84.10
360;DHT22;168;48.872;9.226;2023-10-13T04:30:38;16.90;84.10
360;DHT22;168;48.872;9.226;2023-10-13T04:33:23;16.90;84.50
360;DHT22;168;48.872;9.226;2023-10-13T04:36:11;16.90;84.70
360;DHT22;168;48.872;9.226;2023-10-13T04:38:50;16.80;84.40
360;DHT22;168;48.872;9.226;2023-10-13T04:41:37;16.80;84.70
360;DHT22;168;48.872;9.226;2023-10-13T04:44:41;16.80;84.60
360;DHT22;168;48.872;9.226;2023-10-13T04:47:28;16.90;84.50
360;DHT22;168;48.872;9.226;2023-10-13T04:50:08;16.80;84.60
360;DHT22;168;48.872;9.226;2023-10-13T04:52:54;16.80;84.50
360;DHT22;168;48.872;9.226;2023-10-13T04:55:28;16.80;84.70
360;DHT22;168;48.872;9.226;2023-10-13T04:58:27;16.80;84.90
360;DHT22;168;48.872;9.226;2023-10-13T05:01:31;16.80;84.60
360;DHT22;168;48.872;9.226;2023-10-13T05:04:50;16.90;84.30
360;DHT22;168;48.872;9.226;2023-10-13T05:07:35;16.90;83.70
360;DHT22;168;48.872;9.226;2023-10-13T05:10:20;16.80;84.00
360;DHT22;168;48.872;9.226;2023-10-13T05:13:05;16.80;84.10
360;DHT22;168;48.872;9.226;2023-10-13T05:15:51;16.70;84.40
360;DHT22;168;48.872;9.226;2023-10-13T05:18:38;16.70;84.50
360;DHT22;168;48.872;9.226;2023-10-13T05:21:37;16.60;84.60
360;DHT22;168;48.872;9.226;2023-10-13T05:24:22;16.60;85.10
360;DHT22;168;48.872;9.226;2023-10-13T05:27:08;16.60;85.50
360;DHT22;168;48.872;9.226;2023-10-13T05:29:53;16.60;85.90
360;DHT22;168;48.872;9.226;2023-10-13T05:32:41;16.60;86.00
360;DHT22;168;48.872;9.226;2023-10-13T05:37:58;16.50;86.70
360;DHT22;168;48.872;9.226;2023-10-13T05:40:51;16.50;86.40
360;DHT22;168;48.872;9.226;2023-10-13T05:43:36;16.50;85.90
360;DHT22;168;48.872;9.226;2023-10-13T05:46:21;16.60;85.70
360;DHT22;168;48.872;9.226;2023-10-13T05:49:15;16.60;85.60
360;DHT22;168;48.872;9.226;2023-10-13T05:52:02;16.50;85.60
360;DHT22;168;48.872;9.226;2023-10-13T05:54:46;16.60;85.10
360;DHT22;168;48.872;9.226;2023-10-13T05:57:32;16.60;85.60
360;DHT22;168;48.872;9.226;2023-10-13T06:00:16;16.70;85.40
360;DHT22;168;48.872;9.226;2023-10-13T06:03:02;16.70;85.60
360;DHT22;168;48.872;9.226;2023-10-13T06:05:58;16.80;85.70
360;DHT22;168;48.872;9.226;2023-10-13T06:08:43;16.90;85.30
360;DHT22;168;48.872;9.226;2023-10-13T06:11:29;17.00;84.50
360;DHT22;168;48.872;9.226;2023-10-13T06:14:14;17.00;84.10
360;DHT22;168;48.872;9.226;2023-10-13T06:16:59;17.10;83.80
360;DHT22;168;48.872;9.226;2023-10-13T06:19:43;17.10;83.60
360;DHT22;168;48.872;9.226;2023-10-13T06:22:28;17.20;83.40
360;DHT22;168;48.872;9.226;2023-10-13T06:25:13;17.30;83.00
360;DHT22;168;48.872;9.226;2023-10-13T06:27:59;17.40;82.90
360;DHT22;168;48.872;9.226;2023-10-13T06:30:53;17.60;82.40
360;DHT22;168;48.872;9.226;2023-10-13T06:33:22;17.60;82.30
360;DHT22;168;48.872;9.226;2023-10-13T06:35:56;17.70;81.90
360;DHT22;168;48.872;9.226;2023-10-13T06:38:24;17.80;81.60
360;DHT22;168;48.872;9.226;2023-10-13T06:40:57;17.80;81.70
360;DHT22;168;48.872;9.226;2023-10-13T06:43:26;17.90;81.70
360;DHT22;168;48.872;9.226;2023-10-13T06:46:00;18.00;82.20
360;DHT22;168;48.872;9.226;2023-10-13T06:48:27;18.00;82.20
360;DHT22;168;48.872;9.226;2023-10-13T06:50:59;18.00;82.40
360;DHT22;168;48.872;9.226;2023-10-13T06:53:30;18.00;82.80
360;DHT22;168;48.872;9.226;2023-10-13T06:56:05;18.10;82.60
360;DHT22;168;48.872;9.226;2023-10-13T06:58:34;18.10;82.60
360;DHT22;168;48.872;9.226;2023-10-13T07:01:06;18.20;82.20
360;DHT22;168;48.872;9.226;2023-10-13T07:03:41;18.20;82.60
360;DHT22;168;48.872;9.226;2023-10-13T07:06:08;18.20;81.80
360;DHT22;168;48.872;9.226;2023-10-13T07:08:38;18.30;82.10
360;DHT22;168;48.872;9.226;2023-10-13T07:11:05;18.30;82.70
360;DHT22;168;48.872;9.226;2023-10-13T07:13:35;18.30;82.40
360;DHT22;168;48.872;9.226;2023-10-13T07:16:04;18.40;82.30
360;DHT22;168;48.872;9.226;2023-10-13T07:18:34;18.40;82.20
360;DHT22;168;48.872;9.226;2023-10-13T07:21:08;18.50;81.70
360;DHT22;168;48.872;9.226;2023-10-13T07:23:37;18.60;81.70
360;DHT22;168;48.872;9.226;2023-10-13T07:26:05;18.70;81.80
360;DHT22;168;48.872;9.226;2023-10-13T07:28:35;18.90;81.40
360;DHT22;168;48.872;9.226;2023-10-13T07:31:12;19.10;80.50
360;DHT22;168;48.872;9.226;2023-10-13T07:33:40;19.20;79.80
360;DHT22;168;48.872;9.226;2023-10-13T07:36:09;19.20;80.00
360;DHT22;168;48.872;9.226;2023-10-13T07:38:44;19.20;80.80
360;DHT22;168;48.872;9.226;2023-10-13T07:41:14;19.30;80.60
360;DHT22;168;48.872;9.226;2023-10-13T07:43:57;19.40;80.30
360;DHT22;168;48.872;9.226;2023-10-13T07:46:25;19.40;80.70
360;DHT22;168;48.872;9.226;2023-10-13T07:48:57;19.50;80.00
360;DHT22;168;48.872;9.226;2023-10-13T07:51:35;19.70;78.70
360;DHT22;168;48.872;9.226;2023-10-13T07:54:10;19.80;78.50
360;DHT22;168;48.872;9.226;2023-10-13T07:56:39;19.90;78.30
360;DHT22;168;48.872;9.226;2023-10-13T07:59:08;20.00;77.30
360;DHT22;168;48.872;9.226;2023-10-13T08:01:35;20.10;76.90
360;DHT22;168;48.872;9.226;2023-10-13T08:04:09;20.20;77.10
360;DHT22;168;48.872;9.226;2023-10-13T08:06:38;20.30;75.70
360;DHT22;168;48.872;9.226;2023-10-13T08:09:09;20.30;76.20
360;DHT22;168;48.872;9.226;2023-10-13T08:11:54;20.40;75.40
360;DHT22;168;48.872;9.226;2023-10-13T08:14:23;20.60;74.50
360;DHT22;168;48.872;9.226;2023-10-13T08:16:55;20.60;74.20
360;DHT22;168;48.872;9.226;2023-10-13T08:19:26;20.70;73.70
360;DHT22;168;48.872;9.226;2023-10-13T08:21:55;20.80;73.40
360;DHT22;168;48.872;9.226;2023-10-13T08:24:43;21.00;72.30
360;DHT22;168;48.872;9.226;2023-10-13T08:27:25;21.20;71.30
360;DHT22;168;48.872;9.226;2023-10-13T08:30:03;21.20;71.10
360;DHT22;168;48.872;9.226;2023-10-13T08:32:55;21.40;68.80
360;DHT22;168;48.872;9.226;2023-10-13T08:35:25;21.40;69.40
360;DHT22;168;48.872;9.226;2023-10-13T08:38:03;21.60;68.90
360;DHT22;168;48.872;9.226;2023-10-13T08:40:43;21.70;68.50
360;DHT22;168;48.872;9.226;2023-10-13T08:43:43;21.80;67.60
360;DHT22;168;48.872;9.226;2023-10-13T08:46:18;21.90;67.60
360;DHT22;168;48.872;9.226;2023-10-13T08:48:56;22.00;66.90
360;DHT22;168;48.872;9.226;2023-10-13T08:51:41;22.00;66.40
360;DHT22;168;48.872;9.226;2023-10-13T08:54:16;22.10;66.40
360;DHT22;168;48.872;9.226;2023-10-13T08:57:00;22.20;66.20
360;DHT22;168;48.872;9.226;2023-10-13T08:59:46;22.40;65.20
360;DHT22;168;48.872;9.226;2023-10-13T09:02:22;22.50;65.90
360;DHT22;168;48.872;9.226;2023-10-13T09:05:10;22.60;64.20
360;DHT22;168;48.872;9.226;2023-10-13T09:07:52;22.80;64.00
360;DHT22;168;48.872;9.226;2023-10-13T09:10:22;23.00;63.30
360;DHT22;168;48.872;9.226;2023-10-13T09:12:58;23.10;63.80
360;DHT22;168;48.872;9.226;2023-10-13T09:15:31;23.20;62.10
360;DHT22;168;48.872;9.226;2023-10-13T09:18:25;23.40;61.60
360;DHT22;168;48.872;9.226;2023-10-13T09:21:06;23.50;60.50
360;DHT22;168;48.872;9.226;2023-10-13T09:23:55;23.60;61.90
360;DHT22;168;48.872;9.226;2023-10-13T09:26:43;23.70;60.40
360;DHT22;168;48.872;9.226;2023-10-13T09:29:17;23.80;60.60
360;DHT22;168;48.872;9.226;2023-10-13T09:31:58;24.00;59.90
360;DHT22;168;48.872;9.226;2023-10-13T09:34:28;24.10;59.50
360;DHT22;168;48.872;9.226;2023-10-13T09:37:00;24.20;59.60
360;DHT22;168;48.872;9.226;2023-10-13T09:39:29;24.30;59.90
360;DHT22;168;48.872;9.226;2023-10-13T09:41:56;24.50;59.10
360;DHT22;168;48.872;9.226;2023-10-13T09:44:26;24.70;58.00
360;DHT22;168;48.872;9.226;2023-10-13T09:47:01;24.80;58.40
360;DHT22;168;48.872;9.226;2023-10-13T09:49:39;24.80;58.60
360;DHT22;168;48.872;9.226;2023-10-13T09:52:14;25.00;57.50
360;DHT22;168;48.872;9.226;2023-10-13T09:54:53;25.10;57.40
360;DHT22;168;48.872;9.226;2023-10-13T09:57:29;25.10;57.80
360;DHT22;168;48.872;9.226;2023-10-13T10:00:09;25.20;57.60
360;DHT22;168;48.872;9.226;2023-10-13T10:02:55;25.30;57.80
360;DHT22;168;48.872;9.226;2023-10-13T10:05:32;25.50;56.20
360;DHT22;168;48.872;9.226;2023-10-13T10:08:01;25.60;56.70
360;DHT22;168;48.872;9.226;2023-10-13T10:10:44;25.80;56.00
360;DHT22;168;48.872;9.226;2023-10-13T10:13:19;25.90;56.30
360;DHT22;168;48.872;9.226;2023-10-13T10:15:51;26.00;54.90
360;DHT22;168;48.872;9.226;2023-10-13T10:18:23;26.10;53.70
360;DHT22;168;48.872;9.226;2023-10-13T10:21:03;26.20;53.60
360;DHT22;168;48.872;9.226;2023-10-13T10:23:33;26.30;53.50
360;DHT22;168;48.872;9.226;2023-10-13T10:26:12;26.40;53.20
360;DHT22;168;48.872;9.226;2023-10-13T10:28:42;26.50;53.20
360;DHT22;168;48.872;9.226;2023-10-13T10:31:10;26.60;52.90
360;DHT22;168;48.872;9.226;2023-10-13T10:33:40;26.70;52.10
360;DHT22;168;48.872;9.226;2023-10-13T10:36:10;26.70;52.50
360;DHT22;168;48.872;9.226;2023-10-13T10:38:52;26.60;52.10
360;DHT22;168;48.872;9.226;2023-10-13T10:41:26;26.60;52.10
360;DHT22;168;48.872;9.226;2023-10-13T10:44:10;26.50;52.20
360;DHT22;168;48.872;9.226;2023-10-13T10:46:42;26.50;52.10
360;DHT22;168;48.872;9.226;2023-10-13T10:49:18;26.40;52.30
360;DHT22;168;48.872;9.226;2023-10-13T10:51:58;26.40;51.90
360;DHT22;168;48.872;9.226;2023-10-13T10:54:30;26.40;52.50
360;DHT22;168;48.872;9.226;2023-10-13T10:56:59;26.50;51.70
360;DHT22;168;48.872;9.226;2023-10-13T10:59:37;26.50;51.80
360;DHT22;168;48.872;9.226;2023-10-13T11:02:05;26.50;52.10
360;DHT22;168;48.872;9.226;2023-10-13T11:04:35;26.50;51.70
360;DHT22;168;48.872;9.226;2023-10-13T11:07:08;26.60;51.70
360;DHT22;168;48.872;9.226;2023-10-13T11:09:36;26.60;52.40
360;DHT22;168;48.872;9.226;2023-10-13T11:12:13;26.60;52.60
360;DHT22;168;48.872;9.226;2023-10-13T11:15:00;26.70;52.10
360;DHT22;168;48.872;9.226;2023-10-13T11:17:28;26.80;52.40
360;DHT22;168;48.872;9.226;2023-10-13T11:20:11;27.00;51.10
360;DHT22;168;48.872;9.226;2023-10-13T11:22:53;27.00;52.00
360;DHT22;168;48.872;9.226;2023-10-13T11:25:23;27.10;51.00
360;DHT22;168;48.872;9.226;2023-10-13T11:27:56;27.30;50.80
360;DHT22;168;48.872;9.226;2023-10-13T11:30:26;27.40;50.80
360;DHT22;168;48.872;9.226;2023-10-13T11:32:59;27.50;51.10
360;DHT22;168;48.872;9.226;2023-10-13T11:35:31;27.60;50.50
360;DHT22;168;48.872;9.226;2023-10-13T11:38:14;27.70;50.40
360;DHT22;168;48.872;9.226;2023-10-13T11:40:52;27.80;49.30
360;DHT22;168;48.872;9.226;2023-10-13T11:43:38;27.90;48.50
360;DHT22;168;48.872;9.226;2023-10-13T11:46:26;28.00;49.10
360;DHT22;168;48.872;9.226;2023-10-13T11:49:22;28.10;48.70
360;DHT22;168;48.872;9.226;2023-10-13T11:52:00;28.20;48.40
360;DHT22;168;48.872;9.226;2023-10-13T11:54:47;28.20;48.80
360;DHT22;168;48.872;9.226;2023-10-13T11:57:14;28.40;47.90
360;DHT22;168;48.872;9.226;2023-10-13T11:59:45;28.50;49.10
360;DHT22;168;48.872;9.226;2023-10-13T12:02:20;28.60;47.60
360;DHT22;168;48.872;9.226;2023-10-13T12:05:06;28.70;47.60
360;DHT22;168;48.872;9.226;2023-10-13T12:07:38;28.80;47.40
360;DHT22;168;48.872;9.226;2023-10-13T12:10:27;28.80;47.30
360;DHT22;168;48.872;9.226;2023-10-13T12:13:05;28.80;47.30
360;DHT22;168;48.872;9.226;2023-10-13T12:15:36;28.90;47.20
360;DHT22;168;48.872;9.226;2023-10-13T12:18:15;28.90;47.00
360;DHT22;168;48.872;9.226;2023-10-13T12:20:42;28.90;47.30
360;DHT22;168;48.872;9.226;2023-10-13T12:23:13;28.90;47.40
360;DHT22;168;48.872;9.226;2023-10-13T12:25:44;28.90;47.30
360;DHT22;168;48.872;9.226;2023-10-13T12:28:23;29.00;46.80
360;DHT22;168;48.872;9.226;2023-10-13T12:30:55;29.00;46.90
360;DHT22;168;48.872;9.226;2023-10-13T12:33:25;28.90;47.40
360;DHT22;168;48.872;9.226;2023-10-13T12:35:56;29.00;46.90
360;DHT22;168;48.872;9.226;2023-10-13T12:38:56;29.00;47.00
360;DHT22;168;48.872;9.226;2023-10-13T12:41:51;28.90;47.00
360;DHT22;168;48.872;9.226;2023-10-13T12:44:35;28.90;47.10
360;DHT22;168;48.872;9.226;2023-10-13T12:47:20;29.00;47.30
360;DHT22;168;48.872;9.226;2023-10-13T12:50:05;29.00;47.10
360;DHT22;168;48.872;9.226;2023-10-13T12:52:40;29.00;47.60
360;DHT22;168;48.872;9.226;2023-10-13T12:55:11;29.10;46.50
360;DHT22;168;48.872;9.226;2023-10-13T12:57:42;29.20;46.90
360;DHT22;168;48.872;9.226;2023-10-13T13:00:12;29.20;47.00
360;DHT22;168;48.872;9.226;2023-10-13T13:02:51;29.30;47.00
360;DHT22;168;48.872;9.226;2023-10-13T13:05:22;29.40;46.80
360;DHT22;168;48.872;9.226;2023-10-13T13:07:54;29.50;47.10
360;DHT22;168;48.872;9.226;2023-10-13T13:10:22;29.60;46.20
360;DHT22;168;48.872;9.226;2023-10-13T13:13:03;29.60;46.40
360;DHT22;168;48.872;9.226;2023-10-13T13:15:31;29.70;46.20
360;DHT22;168;48.872;9.226;2023-10-13T13:17:58;29.60;45.50
360;DHT22;168;48.872;9.226;2023-10-13T13:20:36;29.50;46.10
360;DHT22;168;48.872;9.226;2023-10-13T13:23:05;29.40;46.50
360;DHT22;168;48.872;9.226;2023-10-13T13:25:32;29.30;47.10
360;DHT22;168;48.872;9.226;2023-10-13T13:28:00;29.40;46.40
360;DHT22;168;48.872;9.226;2023-10-13T13:30:33;29.40;46.80
360;DHT22;168;48.872;9.226;2023-10-13T13:33:01;29.40;46.90
360;DHT22;168;48.872;9.226;2023-10-13T13:35:36;29.20;47.50
360;DHT22;168;48.872;9.226;2023-10-13T13:38:03;29.30;46.50
360;DHT22;168;48.872;9.226;2023-10-13T13:40:39;29.30;45.80
360;DHT22;168;48.872;9.226;2023-10-13T13:43:06;29.30;46.30
360;DHT22;168;48.872;9.226;2023-10-13T13:45:35;29.30;45.50
360;DHT22;168;48.872;9.226;2023-10-13T13:48:07;29.20;44.50
360;DHT22;168;48.872;9.226;2023-10-13T13:50:41;29.20;44.90
360;DHT22;168;48.872;9.226;2023-10-13T13:53:10;29.30;44.70
360;DHT22;168;48.872;9.226;2023-10-13T13:55:38;29.30;44.30
360;DHT22;168;48.872;9.226;2023-10-13T13:58:06;29.40;44.10
360;DHT22;168;48.872;9.226;2023-10-13T14:00:37;29.30;44.00
360;DHT22;168;48.872;9.226;2023-10-13T14:03:08;29.40;43.80
360;DHT22;168;48.872;9.226;2023-10-13T14:05:49;29.50;43.90
360;DHT22;168;48.872;9.226;2023-10-13T14:08:17;29.50;44.50
360;DHT22;168;48.872;9.226;2023-10-13T14:10:45;29.50;44.40
360;DHT22;168;48.872;9.226;2023-10-13T14:13:35;29.50;44.10
360;DHT22;168;48.872;9.226;2023-10-13T14:16:17;29.60;44.80
360;DHT22;168;48.872;9.226;2023-10-13T14:18:44;29.60;44.60
360;DHT22;168;48.872;9.226;2023-10-13T14:21:12;29.60;44.60
360;DHT22;168;48.872;9.226;2023-10-13T14:23:44;29.70;43.90
360;DHT22;168;48.872;9.226;2023-10-13T14:26:13;29.70;43.80
360;DHT22;168;48.872;9.226;2023-10-13T14:28:40;29.60;44.20
360;DHT22;168;48.872;9.226;2023-10-13T14:31:19;29.70;44.30
360;DHT22;168;48.872;9.226;2023-10-13T14:33:48;29.60;44.10
360;DHT22;168;48.872;9.226;2023-10-13T14:36:15;29.60;43.60
360;DHT22;168;48.872;9.226;2023-10-13T14:38:46;29.50;44.20
360;DHT22;168;48.872;9.226;2023-10-13T14:41:15;29.50;44.50
360;DHT22;168;48.872;9.226;2023-10-13T14:43:44;29.50;44.30
360;DHT22;168;48.872;9.226;2023-10-13T14:46:14;29.40;44.50
360;DHT22;168;48.872;9.226;2023-10-13T14:48:43;29.30;44.80
360;DHT22;168;48.872;9.226;2023-10-13T14:51:11;29.30;44.70
360;DHT22;168;48.872;9.226;2023-10-13T14:53:40;29.30;44.80
360;DHT22;168;48.872;9.226;2023-10-13T14:56:10;29.30;44.90
360;DHT22;168;48.872;9.226;2023-10-13T14:58:38;29.20;44.90
360;DHT22;168;48.872;9.226;2023-10-13T15:01:12;29.20;44.50
360;DHT22;168;48.872;9.226;2023-10-13T15:03:43;29.10;44.20
360;DHT22;168;48.872;9.226;2023-10-13T15:06:16;29.10;44.40
360;DHT22;168;48.872;9.226;2023-10-13T15:08:44;29.10;44.80
360;DHT22;168;48.872;9.226;2023-10-13T15:11:13;29.00;43.70
360;DHT22;168;48.872;9.226;2023-10-13T15:13:40;28.90;44.30
360;DHT22;168;48.872;9.226;2023-10-13T15:16:14;28.90;44.70
360;DHT22;168;48.872;9.226;2023-10-13T15:18:44;28.90;43.80
360;DHT22;168;48.872;9.226;2023-10-13T15:21:18;28.90;43.70
360;DHT22;168;48.872;9.226;2023-10-13T15:23:47;28.90;43.90
360;DHT22;168;48.872;9.226;2023-10-13T15:26:14;28.90;43.90
360;DHT22;168;48.872;9.226;2023-10-13T15:28:42;28.90;42.90
360;DHT22;168;48.872;9.226;2023-10-13T15:31:15;28.80;43.50
360;DHT22;168;48.872;9.226;2023-10-13T15:34:05;28.80;43.40
360;DHT22;168;48.872;9.226;2023-10-13T15:36:40;28.80;43.50
360;DHT22;168;48.872;9.226;2023-10-13T15:39:08;28.90;43.60
360;DHT22;168;48.872;9.226;2023-10-13T15:41:37;29.00;43.40
360;DHT22;168;48.872;9.226;2023-10-13T15:44:05;29.00;43.70
360;DHT22;168;48.872;9.226;2023-10-13T15:46:36;29.10;42.90
360;DHT22;168;48.872;9.226;2023-10-13T15:49:05;29.20;42.70
360;DHT22;168;48.872;9.226;2023-10-13T15:51:33;29.10;42.50
360;DHT22;168;48.872;9.226;2023-10-13T15:54:02;29.10;42.50
360;DHT22;168;48.872;9.226;2023-10-13T15:56:30;29.00;42.90
360;DHT22;168;48.872;9.226;2023-10-13T15:58:58;28.90;43.00
360;DHT22;168;48.872;9.226;2023-10-13T16:01:28;28.90;42.50
360;DHT22;168;48.872;9.226;2023-10-13T16:03:55;28.80;42.80
360;DHT22;168;48.872;9.226;2023-10-13T16:06:29;28.60;42.90
360;DHT22;168;48.872;9.226;2023-10-13T16:08:58;28.50;43.00
360;DHT22;168;48.872;9.226;2023-10-13T16:11:27;28.30;43.50
360;DHT22;168;48.872;9.226;2023-10-13T16:13:55;28.20;43.70
360;DHT22;168;48.872;9.226;2023-10-13T16:16:23;28.00;44.30
360;DHT22;168;48.872;9.226;2023-10-13T16:18:51;27.80;44.10
360;DHT22;168;48.872;9.226;2023-10-13T16:21:21;27.80;43.40
360;DHT22;168;48.872;9.226;2023-10-13T16:23:51;27.60;44.00
360;DHT22;168;48.872;9.226;2023-10-13T16:26:18;27.30;44.50
360;DHT22;168;48.872;9.226;2023-10-13T16:28:49;27.30;43.70
360;DHT22;168;48.872;9.226;2023-10-13T16:31:20;27.10;43.90
360;DHT22;168;48.872;9.226;2023-10-13T16:33:49;27.00;44.70
360;DHT22;168;48.872;9.226;2023-10-13T16:36:19;26.90;44.10
360;DHT22;168;48.872;9.226;2023-10-13T16:38:48;26.80;44.40
360;DHT22;168;48.872;9.226;2023-10-13T16:41:17;26.70;44.10
360;DHT22;168;48.872;9.226;2023-10-13T16:43:44;26.60;44.20
360;DHT22;168;48.872;9.226;2023-10-13T16:46:12;26.40;44.00
360;DHT22;168;48.872;9.226;2023-10-13T16:48:41;26.40;44.30
360;DHT22;168;48.872;9.226;2023-10-13T16:51:15;26.20;44.80
360;DHT22;168;48.872;9.226;2023-10-13T16:53:43;26.20;45.10
360;DHT22;168;48.872;9.226;2023-10-13T16:56:17;26.10;44.60
360;DHT22;168;48.872;9.226;2023-10-13T16:58:45;26.00;44.90
360;DHT22;168;48.872;9.226;2023-10-13T17:01:13;25.90;45.10
360;DHT22;168;48.872;9.226;2023-10-13T17:03:41;25.80;45.20
360;DHT22;168;48.872;9.226;2023-10-13T17:06:11;25.70;45.30
360;DHT22;168;48.872;9.226;2023-10-13T17:08:38;25.60;45.60
360;DHT22;168;48.872;9.226;2023-10-13T17:11:09;25.50;45.90
360;DHT22;168;48.872;9.226;2023-10-13T17:13:39;25.50;45.60
360;DHT22;168;48.872;9.226;2023-10-13T17:16:12;25.40;46.00
360;DHT22;168;48.872;9.226;2023-10-13T17:18:40;25.40;45.90
360;DHT22;168;48.872;9.226;2023-10-13T17:21:14;25.40;46.10
360;DHT22;168;48.872;9.226;2023-10-13T17:23:43;25.40;46.00
360;DHT22;168;48.872;9.226;2023-10-13T17:26:11;25.30;46.40